.
WxDataArchive / Data Records for 2008-10-19
2008-10-18 October 2008 2008-10-20

Data Records for Sunday, 19 October 2008

Time	Temp	Chill	HIndex	Humid	Dewpt	 Wind 	HiWind	WindDir	Rain 	Barom 
-----	----	-----	------	-----	-----	------	------	-------	-----	----- 
00:00	37.0	37.0	37.0	85	32.9	0	0	---	0.00	30.326 
00:05	36.9	36.9	36.9	85	32.8	0	0	---	0.00	30.325 
00:10	36.6	36.6	36.6	86	32.8	0	0	---	0.00	30.324 
00:15	36.6	36.6	36.6	86	32.8	0	0	---	0.00	30.325 
00:20	36.5	36.5	36.5	87	33.0	0	0	---	0.00	30.324 
00:25	36.3	36.3	36.3	87	32.8	0	0	---	0.00	30.324 
00:30	36.3	36.3	36.3	87	32.8	0	0	---	0.00	30.324 
00:35	36.2	36.2	36.2	88	33.0	0	0	---	0.00	30.325 
00:40	36.2	36.2	36.2	88	33.0	0	0	---	0.00	30.324 
00:45	36.0	36.0	36.0	89	33.1	0	0	---	0.00	30.325 
00:50	36.0	36.0	36.0	89	33.1	0	0	---	0.00	30.325 
00:55	35.9	35.9	35.9	89	33.0	0	0	---	0.00	30.327 
01:00	35.8	35.8	35.8	89	32.9	0	0	---	0.00	30.328 
01:05	35.6	35.6	35.6	89	32.7	0	0	---	0.00	30.327 
01:10	35.6	35.6	35.6	90	33.0	0	0	---	0.00	30.328 
01:15	35.5	35.5	35.5	90	32.9	0	0	---	0.00	30.328 
01:20	35.3	35.3	35.3	90	32.7	0	0	---	0.00	30.328 
01:25	35.3	35.3	35.3	90	32.7	0	0	---	0.00	30.332 
01:30	35.2	35.2	35.2	90	32.6	0	0	---	0.00	30.336 
01:35	35.2	35.2	35.2	90	32.6	0	0	---	0.00	30.335 
01:40	35.0	35.0	35.0	90	32.4	0	0	---	0.00	30.336 
01:45	35.0	35.0	35.0	91	32.6	0	0	---	0.00	30.336 
01:50	34.9	34.9	34.9	91	32.5	0	0	---	0.00	30.333 
01:55	34.9	34.9	34.9	91	32.5	0	0	---	0.00	30.332 
02:00	34.7	34.7	34.7	91	32.3	0	0	---	0.00	30.331 
02:05	34.6	34.6	34.6	91	32.2	0	0	---	0.00	30.328 
02:10	34.4	34.4	34.4	91	32.0	0	0	---	0.00	30.330 
02:15	34.4	34.4	34.4	91	32.0	0	0	---	0.00	30.330 
02:20	34.4	34.4	34.4	91	32.0	0	0	---	0.00	30.330 
02:25	34.3	34.3	34.3	91	32.0	0	0	---	0.00	30.328 
02:30	34.1	34.1	34.1	91	31.8	0	0	---	0.00	30.328 
02:35	34.1	34.1	34.1	91	31.8	0	0	---	0.00	30.324 
02:40	34.0	34.0	34.0	92	31.9	0	0	---	0.00	30.322 
02:45	34.0	34.0	34.0	92	31.9	0	0	---	0.00	30.322 
02:50	34.0	34.0	34.0	92	31.9	0	0	---	0.00	30.325 
02:55	34.0	34.0	34.0	92	31.9	0	0	---	0.00	30.324 
03:00	33.8	33.8	33.8	92	31.7	0	0	---	0.00	30.323 
03:05	33.7	33.7	33.7	92	31.6	0	0	---	0.00	30.322 
03:10	33.7	33.7	33.7	92	31.6	0	0	---	0.00	30.321 
03:15	33.5	33.5	33.5	92	31.4	0	0	---	0.00	30.323 
03:20	33.5	33.5	33.5	92	31.4	0	0	---	0.00	30.324 
03:25	33.4	33.4	33.4	92	31.3	0	0	---	0.00	30.328 
03:30	33.4	33.4	33.4	92	31.3	0	0	---	0.00	30.329 
03:35	33.4	33.4	33.4	92	31.3	0	0	---	0.00	30.329 
03:40	33.2	33.2	33.2	93	31.4	0	0	---	0.00	30.329 
03:45	33.2	33.2	33.2	93	31.4	0	0	---	0.00	30.331 
03:50	33.2	33.2	33.2	93	31.4	0	0	---	0.00	30.329 
03:55	33.1	33.1	33.1	93	31.3	0	0	---	0.00	30.329 
04:00	33.1	33.1	33.1	93	31.3	0	0	---	0.00	30.329 
04:05	33.1	33.1	33.1	93	31.3	0	0	---	0.00	30.329 
04:10	32.9	32.9	32.9	93	31.1	0	0	---	0.00	30.330 
04:15	32.9	32.9	32.9	93	31.1	0	0	---	0.00	30.328 
04:20	32.8	32.8	32.8	93	31.0	0	0	---	0.00	30.328 
04:25	32.8	32.8	32.8	93	31.0	0	0	---	0.00	30.327 
04:30	32.7	32.7	32.7	93	30.9	0	0	---	0.00	30.330 
04:35	32.7	32.7	32.7	93	30.9	0	0	---	0.00	30.331 
04:40	32.7	32.7	32.7	93	30.9	0	0	---	0.00	30.332 
04:45	32.5	32.5	32.5	93	30.7	0	0	---	0.00	30.332 
04:50	32.5	32.5	32.5	93	30.7	0	0	---	0.00	30.333 
04:55	32.5	32.5	32.5	93	30.7	0	0	---	0.00	30.334 
05:00	32.5	32.5	32.5	93	30.7	0	0	---	0.00	30.338 
05:05	32.4	32.4	32.4	93	30.6	0	0	---	0.00	30.345 
05:10	32.4	32.4	32.4	93	30.6	0	0	---	0.00	30.348 
05:15	32.4	32.4	32.4	94	30.9	0	0	---	0.00	30.349 
05:20	32.2	32.2	32.2	94	30.7	0	0	---	0.00	30.348 
05:25	32.2	32.2	32.2	94	30.7	0	0	---	0.00	30.349 
05:30	32.2	32.2	32.2	94	30.7	0	1	112	0.00	30.348 
05:35	32.2	32.2	32.2	94	30.7	0	0	---	0.00	30.350 
05:40	32.1	32.1	32.1	94	30.6	0	0	---	0.00	30.346 
05:45	32.1	32.1	32.1	94	30.6	0	0	---	0.00	30.345 
05:50	31.9	31.9	31.9	94	30.4	0	0	---	0.00	30.344 
05:55	31.9	31.9	31.9	94	30.4	0	0	---	0.00	30.347 
06:00	31.9	31.9	31.9	94	30.4	0	0	---	0.00	30.349 
06:05	31.9	31.9	31.9	94	30.4	0	0	---	0.00	30.356 
06:10	31.9	31.9	31.9	94	30.4	0	0	---	0.00	30.357 
06:15	31.9	31.9	31.9	94	30.4	0	0	---	0.00	30.357 
06:20	31.8	31.8	31.8	94	30.3	0	0	---	0.00	30.358 
06:25	31.8	31.8	31.8	94	30.3	0	0	---	0.00	30.358 
06:30	31.6	31.6	31.6	94	30.1	0	0	---	0.00	30.359 
06:35	31.6	31.6	31.6	94	30.1	0	0	---	0.00	30.362 
06:40	31.6	31.6	31.6	94	30.1	0	0	---	0.00	30.369 
06:45	31.6	31.6	31.6	94	30.1	0	0	---	0.00	30.371 
06:50	31.5	31.5	31.5	94	30.0	0	0	---	0.00	30.371 
06:55	31.5	31.5	31.5	94	30.0	0	0	---	0.00	30.372 
07:00	31.5	31.5	31.5	94	30.0	0	0	---	0.00	30.372 
07:05	31.3	31.3	31.3	94	29.8	0	0	---	0.00	30.376 
07:10	31.3	31.3	31.3	94	29.8	0	0	---	0.00	30.375 
07:15	31.3	31.3	31.3	94	29.8	0	0	---	0.00	30.373 
07:20	31.5	31.5	31.5	94	30.0	0	0	---	0.00	30.371 
07:25	31.8	31.8	31.8	94	30.3	0	0	---	0.00	30.375 
07:30	31.8	31.8	31.8	94	30.3	0	0	---	0.00	30.376 
07:35	32.1	32.1	32.1	95	30.8	0	0	---	0.00	30.376 
07:40	32.5	32.5	32.5	95	31.2	0	0	---	0.00	30.379 
07:45	32.9	32.9	32.9	95	31.6	0	0	---	0.00	30.381 
07:50	33.2	33.2	33.2	95	31.9	0	0	---	0.00	30.383 
07:55	33.5	33.5	33.5	95	32.2	0	0	---	0.00	30.382 
08:00	34.0	34.0	34.0	95	32.7	0	0	---	0.00	30.383 
08:05	34.7	34.7	34.7	96	33.7	0	0	---	0.00	30.382 
08:10	35.5	35.5	35.5	96	34.5	0	0	---	0.00	30.380 
08:15	36.2	36.2	36.2	96	35.2	0	0	---	0.00	30.384 
08:20	36.8	36.8	36.8	96	35.8	0	1	338	0.00	30.383 
08:25	37.5	37.5	37.5	96	36.5	0	1	338	0.00	30.382 
08:30	38.2	38.2	38.2	96	37.2	0	1	338	0.00	30.383 
08:35	38.8	38.8	38.8	96	37.8	0	1	338	0.00	30.383 
08:40	39.3	39.3	39.3	96	38.3	0	1	338	0.00	30.383 
08:45	39.8	39.8	39.8	96	38.8	0	1	338	0.00	30.385 
08:50	40.5	40.5	40.5	95	39.2	0	1	338	0.00	30.385 
08:55	41.5	41.5	41.5	95	40.2	0	1	338	0.00	30.383 
09:00	42.8	42.8	42.8	89	39.8	0	3	22	0.00	30.381 
09:05	43.8	43.8	43.8	84	39.3	0	2	22	0.00	30.381 
09:10	45.1	45.1	45.1	77	38.3	0	2	22	0.00	30.378 
09:15	46.1	46.1	46.1	73	37.9	0	1	22	0.00	30.376 
09:20	47.0	47.0	47.0	71	38.1	0	2	338	0.00	30.376 
09:25	47.7	47.7	47.7	64	36.1	1	3	292	0.00	30.378 
09:30	48.9	48.9	48.9	59	35.2	1	4	90	0.00	30.376 
09:35	49.8	49.8	49.8	59	36.1	0	2	90	0.00	30.375 
09:40	50.7	50.7	50.7	57	36.0	0	2	90	0.00	30.376 
09:45	51.1	51.1	51.1	57	36.4	0	2	180	0.00	30.374 
09:50	51.7	51.7	51.7	53	35.1	1	3	112	0.00	30.374 
09:55	52.0	52.0	52.0	52	34.9	0	3	248	0.00	30.372 
10:00	52.0	52.0	52.0	53	35.4	1	3	270	0.00	30.372 
10:05	52.2	52.2	52.2	51	34.6	0	4	248	0.00	30.371 
10:10	52.9	52.9	52.9	52	35.8	1	3	90	0.00	30.369 
10:15	53.6	53.6	53.6	48	34.4	1	3	90	0.00	30.372 
10:20	54.1	54.1	54.1	46	33.8	1	3	90	0.00	30.369 
10:25	54.5	54.5	54.5	45	33.6	1	5	90	0.00	30.366 
10:30	54.7	54.7	54.7	48	35.4	0	3	112	0.00	30.361 
10:35	54.8	54.8	54.8	48	35.5	1	5	90	0.00	30.360 
10:40	55.0	55.0	55.0	46	34.6	1	5	90	0.00	30.360 
10:45	54.8	54.8	54.8	45	33.9	2	4	90	0.00	30.359 
10:50	54.7	54.7	54.7	45	33.8	2	5	112	0.00	30.359 
10:55	54.5	54.5	54.5	48	35.2	1	5	0	0.00	30.360 
11:00	54.5	54.5	54.5	46	34.1	1	4	270	0.00	30.357 
11:05	54.7	54.7	54.7	48	35.4	1	6	90	0.00	30.360 
11:10	54.7	54.7	54.7	46	34.3	1	3	90	0.00	30.358 
11:15	55.0	55.0	55.0	44	33.5	2	7	90	0.00	30.357 
11:20	55.1	55.1	55.1	48	35.8	0	2	90	0.00	30.357 
11:25	55.4	55.4	55.4	46	35.0	1	4	90	0.00	30.351 
11:30	55.1	55.1	55.1	47	35.2	1	5	248	0.00	30.352 
11:35	55.3	55.3	55.3	47	35.4	1	5	90	0.00	30.349 
11:40	55.3	55.3	55.3	44	33.8	1	7	112	0.00	30.349 
11:45	55.1	55.1	55.1	45	34.1	1	3	315	0.00	30.345 
11:50	55.3	55.3	55.3	48	35.9	1	5	270	0.00	30.344 
11:55	55.4	55.4	55.4	47	35.5	1	5	90	0.00	30.343 
12:00	55.7	55.7	55.7	47	35.8	1	4	112	0.00	30.341 
12:05	56.0	56.0	56.0	44	34.4	1	5	68	0.00	30.340 
12:10	56.3	56.3	56.3	45	35.2	1	3	135	0.00	30.333 
12:15	56.6	56.6	56.6	44	34.9	0	4	135	0.00	30.329 
12:20	56.7	56.7	56.7	41	33.3	2	4	90	0.00	30.330 
12:25	56.6	56.6	56.6	42	33.8	1	5	90	0.00	30.327 
12:30	56.5	56.5	56.5	43	34.3	1	5	90	0.00	30.322 
12:35	56.6	56.6	56.6	40	32.6	2	6	90	0.00	30.319 
12:40	56.6	56.6	56.6	41	33.2	0	2	45	0.00	30.319 
12:45	56.7	56.7	56.7	41	33.3	1	4	248	0.00	30.318 
12:50	56.6	56.6	56.6	40	32.6	2	5	90	0.00	30.315 
12:55	56.5	56.5	56.5	45	35.4	1	7	248	0.00	30.312 
13:00	56.7	56.7	56.7	41	33.3	1	4	90	0.00	30.312 
13:05	56.7	56.7	56.7	40	32.7	1	4	90	0.00	30.309 
13:10	56.9	56.9	56.9	42	34.0	1	3	112	0.00	30.307 
13:15	56.9	56.9	56.9	43	34.6	1	5	248	0.00	30.299 
13:20	57.0	57.0	57.0	42	34.1	1	6	68	0.00	30.299 
13:25	57.2	57.2	57.2	42	34.3	1	3	68	0.00	30.299 
13:30	57.3	57.3	57.3	42	34.4	1	3	45	0.00	30.296 
13:35	57.3	57.3	57.3	43	35.0	0	3	248	0.00	30.294 
13:40	57.5	57.5	57.5	42	34.6	1	4	90	0.00	30.292 
13:45	57.5	57.5	57.5	40	33.4	1	3	112	0.00	30.290 
13:50	57.5	57.5	57.5	39	32.7	1	5	90	0.00	30.289 
13:55	57.5	57.5	57.5	43	35.2	1	4	248	0.00	30.288 
14:00	57.5	57.5	57.5	38	32.1	1	4	90	0.00	30.283 
14:05	57.5	57.5	57.5	39	32.7	1	3	112	0.00	30.280 
14:10	57.5	57.5	57.5	39	32.7	2	4	90	0.00	30.280 
14:15	57.5	57.5	57.5	40	33.4	1	2	90	0.00	30.274 
14:20	57.5	57.5	57.5	39	32.7	1	5	248	0.00	30.272 
14:25	57.5	57.5	57.5	40	33.4	1	4	248	0.00	30.268 
14:30	57.6	57.6	57.6	39	32.8	1	5	112	0.00	30.271 
14:35	57.6	57.6	57.6	36	30.8	1	5	112	0.00	30.269 
14:40	57.6	57.6	57.6	40	33.5	1	3	112	0.00	30.266 
14:45	58.0	58.0	58.0	41	34.4	1	3	270	0.00	30.267 
14:50	58.0	58.0	58.0	39	33.2	1	4	248	0.00	30.265 
14:55	58.1	58.1	58.1	37	32.0	2	5	112	0.00	30.265 
15:00	58.1	58.1	58.1	39	33.3	1	4	90	0.00	30.265 
15:05	58.3	58.3	58.3	38	32.8	1	5	90	0.00	30.265 
15:10	58.3	58.3	58.3	39	33.5	1	3	90	0.00	30.265 
15:15	58.1	58.1	58.1	38	32.6	1	3	158	0.00	30.264 
15:20	57.8	57.8	57.8	40	33.6	0	2	270	0.00	30.258 
15:25	58.0	58.0	58.0	37	31.9	1	4	112	0.00	30.261 
15:30	58.0	58.0	58.0	37	31.9	1	3	248	0.00	30.263 
15:35	58.0	58.0	58.0	38	32.5	1	4	90	0.00	30.261 
15:40	57.8	57.8	57.8	37	31.7	0	3	248	0.00	30.253 
15:45	57.8	57.8	57.8	36	31.0	1	4	90	0.00	30.254 
15:50	57.8	57.8	57.8	36	31.0	1	3	90	0.00	30.252 
15:55	57.8	57.8	57.8	36	31.0	1	3	90	0.00	30.252 
16:00	57.8	57.8	57.8	37	31.7	1	3	112	0.00	30.251 
16:05	57.6	57.6	57.6	38	32.2	0	2	90	0.00	30.250 
16:10	57.5	57.5	57.5	36	30.8	0	2	90	0.00	30.250 
16:15	57.3	57.3	57.3	37	31.3	0	2	112	0.00	30.249 
16:20	57.3	57.3	57.3	37	31.3	1	3	135	0.00	30.248 
16:25	57.2	57.2	57.2	38	31.8	0	2	135	0.00	30.244 
16:30	57.2	57.2	57.2	37	31.2	1	6	112	0.00	30.240 
16:35	57.0	57.0	57.0	38	31.6	1	3	68	0.00	30.240 
16:40	56.9	56.9	56.9	39	32.2	1	3	90	0.00	30.238 
16:45	56.7	56.7	56.7	39	32.0	0	2	90	0.00	30.240 
16:50	56.6	56.6	56.6	40	32.6	0	1	90	0.00	30.239 
16:55	56.5	56.5	56.5	40	32.5	0	0	---	0.00	30.238 
17:00	56.3	56.3	56.3	40	32.3	0	1	90	0.00	30.238 
17:05	56.2	56.2	56.2	40	32.2	0	1	90	0.00	30.238 
17:10	56.2	56.2	56.2	41	32.8	0	1	90	0.00	30.238 
17:15	56.2	56.2	56.2	40	32.2	0	1	90	0.00	30.238 
17:20	56.0	56.0	56.0	39	31.4	0	1	90	0.00	30.237 
17:25	55.9	55.9	55.9	39	31.3	0	1	90	0.00	30.235 
17:30	55.9	55.9	55.9	40	31.9	0	0	---	0.00	30.235 
17:35	55.7	55.7	55.7	40	31.8	0	1	90	0.00	30.235 
17:40	55.4	55.4	55.4	41	32.1	0	0	---	0.00	30.236 
17:45	55.1	55.1	55.1	43	33.0	0	0	---	0.00	30.237 
17:50	54.7	54.7	54.7	44	33.2	0	0	---	0.00	30.236 
17:55	53.9	53.9	53.9	45	33.1	0	0	---	0.00	30.236 
18:00	53.3	53.3	53.3	46	33.1	0	0	---	0.00	30.236 
18:05	52.8	52.8	52.8	47	33.1	0	0	---	0.00	30.239 
18:10	52.3	52.3	52.3	49	33.7	0	0	---	0.00	30.239 
18:15	51.7	51.7	51.7	51	34.2	0	0	---	0.00	30.239 
18:20	51.1	51.1	51.1	53	34.6	0	0	---	0.00	30.240 
18:25	50.5	50.5	50.5	56	35.4	0	0	---	0.00	30.241 
18:30	49.9	49.9	49.9	57	35.3	0	0	---	0.00	30.238 
18:35	49.5	49.5	49.5	58	35.3	0	0	---	0.00	30.239 
18:40	48.9	48.9	48.9	58	34.8	0	0	---	0.00	30.239 
18:45	48.5	48.5	48.5	61	35.7	0	0	---	0.00	30.240 
18:50	48.2	48.2	48.2	61	35.4	0	0	---	0.00	30.239 
18:55	47.6	47.6	47.6	62	35.2	0	0	---	0.00	30.241 
19:00	47.3	47.3	47.3	63	35.4	0	0	---	0.00	30.240 
19:05	46.8	46.8	46.8	64	35.3	0	0	---	0.00	30.238 
19:10	46.4	46.4	46.4	65	35.3	0	0	---	0.00	30.239 
19:15	46.0	46.0	46.0	65	34.9	0	0	---	0.00	30.242 
19:20	45.7	45.7	45.7	65	34.6	0	0	---	0.00	30.241 
19:25	45.4	45.4	45.4	67	35.1	0	0	---	0.00	30.241 
19:30	44.9	44.9	44.9	69	35.4	0	0	---	0.00	30.239 
19:35	44.6	44.6	44.6	69	35.1	0	0	---	0.00	30.239 
19:40	44.3	44.3	44.3	70	35.1	0	0	---	0.00	30.237 
19:45	44.1	44.1	44.1	71	35.3	0	0	---	0.00	30.232 
19:50	43.9	43.9	43.9	72	35.5	0	0	---	0.00	30.232 
19:55	43.6	43.6	43.6	73	35.5	0	0	---	0.00	30.233 
20:00	43.5	43.5	43.5	74	35.8	0	0	---	0.00	30.231 
20:05	43.3	43.3	43.3	74	35.6	0	0	---	0.00	30.223 
20:10	43.1	43.1	43.1	74	35.4	0	0	---	0.00	30.223 
20:15	42.8	42.8	42.8	76	35.8	0	0	---	0.00	30.222 
20:20	42.6	42.6	42.6	77	35.9	0	0	---	0.00	30.221 
20:25	42.5	42.5	42.5	77	35.8	0	0	---	0.00	30.219 
20:30	42.2	42.2	42.2	77	35.5	0	0	---	0.00	30.221 
20:35	42.1	42.1	42.1	77	35.4	0	0	---	0.00	30.218 
20:40	41.9	41.9	41.9	78	35.5	0	0	---	0.00	30.216 
20:45	41.8	41.8	41.8	78	35.5	0	0	---	0.00	30.217 
20:50	41.6	41.6	41.6	78	35.3	0	0	---	0.00	30.215 
20:55	41.5	41.5	41.5	78	35.2	0	0	---	0.00	30.214 
21:00	41.5	41.5	41.5	78	35.2	0	0	---	0.00	30.212 
21:05	41.3	41.3	41.3	79	35.3	0	0	---	0.00	30.205 
21:10	41.3	41.3	41.3	79	35.3	0	0	---	0.00	30.203 
21:15	41.3	41.3	41.3	79	35.3	0	0	---	0.00	30.204 
21:20	41.3	41.3	41.3	80	35.6	0	0	---	0.00	30.202 
21:25	41.2	41.2	41.2	80	35.5	0	0	---	0.00	30.202 
21:30	41.2	41.2	41.2	79	35.2	0	0	---	0.00	30.203 
21:35	41.2	41.2	41.2	78	34.9	0	0	---	0.00	30.203 
21:40	41.2	41.2	41.2	78	34.9	0	0	---	0.00	30.204 
21:45	41.2	41.2	41.2	77	34.5	0	0	---	0.00	30.203 
21:50	41.2	41.2	41.2	77	34.5	0	0	---	0.00	30.204 
21:55	41.1	41.1	41.1	78	34.8	0	0	---	0.00	30.205 
22:00	41.2	41.2	41.2	79	35.2	0	0	---	0.00	30.206 
22:05	41.1	41.1	41.1	79	35.1	0	0	---	0.00	30.203 
22:10	41.1	41.1	41.1	79	35.1	0	0	---	0.00	30.202 
22:15	40.9	40.9	40.9	79	34.9	0	0	---	0.00	30.203 
22:20	40.8	40.8	40.8	78	34.5	0	0	---	0.00	30.202 
22:25	40.6	40.6	40.6	77	34.0	0	0	---	0.00	30.201 
22:30	40.5	40.5	40.5	77	33.9	0	0	---	0.00	30.201 
22:35	40.3	40.3	40.3	77	33.7	0	0	---	0.00	30.203 
22:40	40.3	40.3	40.3	77	33.7	0	0	---	0.00	30.203 
22:45	40.2	40.2	40.2	76	33.3	0	0	---	0.00	30.204 
22:50	40.1	40.1	40.1	75	32.8	0	0	---	0.00	30.203 
22:55	40.1	40.1	40.1	75	32.8	0	0	---	0.00	30.203 
23:00	39.9	39.9	39.9	76	33.0	0	0	---	0.00	30.202 
23:05	39.9	39.9	39.9	76	33.0	0	0	---	0.00	30.200 
23:10	39.8	39.8	39.8	77	33.2	0	0	---	0.00	30.198 
23:15	39.8	39.8	39.8	77	33.2	0	0	---	0.00	30.197 
23:20	39.8	39.8	39.8	76	32.9	0	0	---	0.00	30.197 
23:25	39.9	39.9	39.9	73	32.0	0	0	---	0.00	30.197 
23:30	39.9	39.9	39.9	72	31.6	0	0	---	0.00	30.198 
23:35	40.2	40.2	40.2	70	31.2	0	0	---	0.00	30.198 
23:40	40.2	40.2	40.2	69	30.9	0	0	---	0.00	30.197 
23:45	40.5	40.5	40.5	70	31.5	0	0	---	0.00	30.195 
23:50	40.6	40.6	40.6	70	31.6	0	1	90	0.00	30.193 
23:55	40.8	40.8	40.8	70	31.8	0	0	---	0.00	30.193 

CoCoRaHS
IN-AL-39
A2 Web Hosting
Creative Commons License
GoDaddy
Look for:

loaded 2017-10-18 21:58:56 • last modified 2010-11-18 10:43:29
Privacy PolicyDisclaimer
• wx.awcolley.com is powered by PmWiki v.2002016 •
• all content (unless otherwise noted) © 2017 A W Colley